createdAt,value
2018-07-19T00:00:07.215Z,5.50
2018-07-19T00:01:07.149Z,5.60
2018-07-19T00:02:07.066Z,5.70
2018-07-19T00:03:06.990Z,5.50
2018-07-19T00:04:06.899Z,5.60
2018-07-19T00:05:06.822Z,5.70
2018-07-19T00:06:06.747Z,5.90
2018-07-19T00:07:06.672Z,5.50
2018-07-19T00:08:06.620Z,5.20
2018-07-19T00:09:06.517Z,5.60
2018-07-19T00:10:06.439Z,5.30
2018-07-19T00:11:06.351Z,6.00
2018-07-19T00:12:06.289Z,5.70
2018-07-19T00:13:06.198Z,5.70
2018-07-19T00:14:06.124Z,5.70
2018-07-19T00:15:06.050Z,5.40
2018-07-19T00:16:05.962Z,5.60
2018-07-19T00:17:05.887Z,5.50
2018-07-19T00:18:05.812Z,5.40
2018-07-19T00:19:05.821Z,5.30
2018-07-19T00:20:05.650Z,5.20
2018-07-19T00:21:05.576Z,5.40
2018-07-19T00:22:05.500Z,5.50
2018-07-19T00:23:05.426Z,4.80
2018-07-19T00:24:05.339Z,5.00
2018-07-19T00:25:05.262Z,5.30
2018-07-19T00:26:05.190Z,4.90
2018-07-19T00:27:05.113Z,5.30
2018-07-19T00:28:05.025Z,5.00
2018-07-19T00:29:04.954Z,5.00
2018-07-19T00:30:04.877Z,5.00
2018-07-19T00:31:04.801Z,4.70
2018-07-19T00:32:04.716Z,4.80
2018-07-19T00:33:04.641Z,4.80
2018-07-19T00:34:04.566Z,5.00
2018-07-19T00:35:04.478Z,4.60
2018-07-19T00:36:04.402Z,5.00
2018-07-19T00:37:04.325Z,5.00
2018-07-19T00:38:04.251Z,4.70
2018-07-19T00:39:04.176Z,4.50
2018-07-19T00:40:04.089Z,4.60
2018-07-19T00:41:04.016Z,4.50
2018-07-19T00:42:03.941Z,4.60
2018-07-19T00:43:03.854Z,4.70
2018-07-19T00:44:03.778Z,4.50
2018-07-19T00:45:03.951Z,4.40
2018-07-19T00:46:03.626Z,4.60
2018-07-19T00:47:03.540Z,4.50
2018-07-19T00:48:03.465Z,4.40
2018-07-19T00:49:03.389Z,4.40
2018-07-19T00:50:03.315Z,4.40
2018-07-19T00:51:03.227Z,4.20
2018-07-19T00:52:03.164Z,3.70
2018-07-19T00:53:03.083Z,4.10
2018-07-19T00:54:03.006Z,4.10
2018-07-19T00:55:02.918Z,4.10
2018-07-19T00:56:02.843Z,4.30
2018-07-19T00:57:02.766Z,4.40
2018-07-19T00:58:02.690Z,4.10
2018-07-19T00:59:02.602Z,4.10
2018-07-19T01:00:02.528Z,4.00
2018-07-19T01:01:02.455Z,4.30
2018-07-19T01:02:02.369Z,3.80
2018-07-19T01:03:02.295Z,4.30
2018-07-19T01:04:02.220Z,4.10
2018-07-19T01:05:02.144Z,4.10
2018-07-19T01:06:02.055Z,4.30
2018-07-19T01:07:01.993Z,4.20
2018-07-19T01:08:01.905Z,4.40
2018-07-19T01:09:01.829Z,4.30
2018-07-19T01:10:01.754Z,4.10
2018-07-19T01:11:01.668Z,4.10
2018-07-19T01:12:01.595Z,4.10
2018-07-19T01:13:01.509Z,3.70
2018-07-19T01:14:01.431Z,3.90
2018-07-19T01:15:01.356Z,3.60
2018-07-19T01:16:01.281Z,3.80
2018-07-19T01:17:01.193Z,3.90
2018-07-19T01:18:01.119Z,3.50
2018-07-19T01:19:01.044Z,3.90
2018-07-19T01:20:00.969Z,3.50
2018-07-19T01:21:00.887Z,3.80
2018-07-19T01:22:00.807Z,3.60
2018-07-19T01:23:00.733Z,3.30
2018-07-19T01:24:00.646Z,3.50
2018-07-19T01:25:00.568Z,3.60
2018-07-19T01:26:00.493Z,3.40
2018-07-19T01:27:00.418Z,3.40
2018-07-19T01:28:00.333Z,3.60
2018-07-19T01:29:00.261Z,3.40
2018-07-19T01:30:00.183Z,3.40
2018-07-19T01:31:00.097Z,3.50
2018-07-19T01:32:00.021Z,3.30
2018-07-19T01:32:59.944Z,3.10
2018-07-19T01:33:59.868Z,3.20
2018-07-19T01:34:59.781Z,3.10
2018-07-19T01:35:59.706Z,3.40
2018-07-19T01:36:59.631Z,3.50
2018-07-19T01:37:59.559Z,3.20
2018-07-19T01:38:59.469Z,3.40
2018-07-19T01:39:59.394Z,3.00
2018-07-19T01:40:59.323Z,3.60
2018-07-19T01:41:59.234Z,3.30
2018-07-19T01:42:59.159Z,3.10
2018-07-19T01:43:59.084Z,3.10
2018-07-19T01:44:58.995Z,3.10
2018-07-19T01:45:58.920Z,3.30
2018-07-19T01:46:58.857Z,3.10
2018-07-19T01:47:58.776Z,3.30
2018-07-19T01:48:58.686Z,3.20
2018-07-19T01:49:58.609Z,2.80
2018-07-19T01:50:58.535Z,2.90
2018-07-19T01:51:58.449Z,2.60
2018-07-19T01:52:58.373Z,2.90
2018-07-19T01:53:58.298Z,2.60
2018-07-19T01:54:58.211Z,2.60
2018-07-19T01:55:58.135Z,2.50
2018-07-19T01:56:58.058Z,2.80
2018-07-19T01:57:57.995Z,2.80
2018-07-19T01:58:57.897Z,2.70
2018-07-19T01:59:58.121Z,3.00
2018-07-19T02:00:57.749Z,2.80
2018-07-19T02:01:57.662Z,2.50
2018-07-19T02:02:57.603Z,2.80
2018-07-19T02:03:57.511Z,2.50
2018-07-19T02:04:57.434Z,2.70
2018-07-19T02:05:57.359Z,2.50
2018-07-19T02:06:57.276Z,2.30
2018-07-19T02:07:57.198Z,2.70
2018-07-19T02:08:57.109Z,2.30
2018-07-19T02:09:57.297Z,2.50
2018-07-19T02:10:56.961Z,2.50
2018-07-19T02:11:56.875Z,2.40
2018-07-19T02:12:56.800Z,2.20
2018-07-19T02:13:56.726Z,2.50
2018-07-19T02:14:56.641Z,2.50
2018-07-19T02:15:56.563Z,2.20
2018-07-19T02:16:56.500Z,2.50
2018-07-19T02:17:56.412Z,2.30
2018-07-19T02:18:56.324Z,2.40
2018-07-19T02:19:56.249Z,2.80
2018-07-19T02:20:56.176Z,2.70
2018-07-19T02:21:56.089Z,2.50
2018-07-19T02:22:56.017Z,2.50
2018-07-19T02:23:55.939Z,2.60
2018-07-19T02:24:55.851Z,2.40
2018-07-19T02:25:55.777Z,2.50
2018-07-19T02:26:55.703Z,2.50
2018-07-19T02:27:55.617Z,2.60
2018-07-19T02:28:55.538Z,2.30
2018-07-19T02:29:55.463Z,2.40
2018-07-19T02:30:55.388Z,2.60
2018-07-19T02:31:55.301Z,2.70
2018-07-19T02:32:55.228Z,2.50
2018-07-19T02:33:55.153Z,2.40
2018-07-19T02:34:55.064Z,2.50
2018-07-19T02:35:54.992Z,2.40
2018-07-19T02:36:54.915Z,2.30
2018-07-19T02:37:54.827Z,2.50
2018-07-19T02:38:54.752Z,2.40
2018-07-19T02:39:54.880Z,2.40
2018-07-19T02:40:54.589Z,2.40
2018-07-19T02:41:54.513Z,2.20
2018-07-19T02:42:54.439Z,2.20
2018-07-19T02:43:54.452Z,2.30
2018-07-19T02:44:54.279Z,2.40
2018-07-19T02:45:54.204Z,2.20
2018-07-19T02:46:54.116Z,2.30
2018-07-19T02:47:54.046Z,2.60
2018-07-19T02:48:53.964Z,2.30
2018-07-19T02:49:53.889Z,2.20
2018-07-19T02:50:53.805Z,2.30
2018-07-19T02:51:53.728Z,2.30
2018-07-19T02:52:53.655Z,2.30
2018-07-19T02:53:53.566Z,2.40
2018-07-19T02:54:53.492Z,2.70
2018-07-19T02:55:53.420Z,2.10
2018-07-19T02:56:53.330Z,2.40
2018-07-19T02:57:53.256Z,2.30
2018-07-19T02:58:53.180Z,2.20
2018-07-19T02:59:53.092Z,2.20
2018-07-19T03:00:53.021Z,2.00
2018-07-19T03:01:52.941Z,2.50
2018-07-19T03:02:52.866Z,2.60
2018-07-19T03:03:52.783Z,2.10
2018-07-19T03:04:52.706Z,2.20
2018-07-19T03:05:52.618Z,2.30
2018-07-19T03:06:52.544Z,2.40
2018-07-19T03:07:52.471Z,2.20
2018-07-19T03:08:52.379Z,2.30
2018-07-19T03:09:52.305Z,2.20
2018-07-19T03:10:52.234Z,2.50
2018-07-19T03:11:52.141Z,2.60
2018-07-19T03:12:52.067Z,2.40
2018-07-19T03:13:51.994Z,2.30
2018-07-19T03:14:51.905Z,2.50
2018-07-19T03:15:51.830Z,2.20
2018-07-19T03:16:51.757Z,2.40
2018-07-19T03:17:51.670Z,2.50
2018-07-19T03:18:51.594Z,2.10
2018-07-19T03:19:51.519Z,2.40
2018-07-19T03:20:51.433Z,2.50
2018-07-19T03:21:51.356Z,2.50
2018-07-19T03:22:51.281Z,2.30
2018-07-19T03:23:51.193Z,2.40
2018-07-19T03:24:51.120Z,2.50
2018-07-19T03:25:51.059Z,2.40
2018-07-19T03:26:50.958Z,2.40
2018-07-19T03:27:50.887Z,2.50
2018-07-19T03:28:50.806Z,2.40
2018-07-19T03:29:50.719Z,2.30
2018-07-19T03:30:50.712Z,2.20
2018-07-19T03:31:50.571Z,2.30
2018-07-19T03:32:50.485Z,2.50
2018-07-19T03:33:50.409Z,2.50
2018-07-19T03:34:50.335Z,2.40
2018-07-19T03:35:50.247Z,2.10
2018-07-19T03:36:50.169Z,2.50
2018-07-19T03:37:50.096Z,2.60
2018-07-19T03:38:50.008Z,2.50
2018-07-19T03:39:49.933Z,2.50
2018-07-19T03:40:49.860Z,2.20
2018-07-19T03:41:49.785Z,2.30
2018-07-19T03:42:49.697Z,2.30
2018-07-19T03:43:49.621Z,2.50
2018-07-19T03:44:49.538Z,2.30
2018-07-19T03:45:49.460Z,2.40
2018-07-19T03:46:49.385Z,2.20
2018-07-19T03:47:49.298Z,2.10
2018-07-19T03:48:49.220Z,2.40
2018-07-19T03:49:49.146Z,2.10
2018-07-19T03:50:49.059Z,2.50
2018-07-19T03:51:48.984Z,2.50
2018-07-19T03:52:48.911Z,2.40
2018-07-19T03:53:48.823Z,2.40
2018-07-19T03:54:48.748Z,2.20
2018-07-19T03:55:48.673Z,2.40
2018-07-19T03:56:48.585Z,2.20
2018-07-19T03:57:48.512Z,2.50
2018-07-19T03:58:48.434Z,2.30
2018-07-19T03:59:48.347Z,2.40
2018-07-19T04:00:48.286Z,2.30
2018-07-19T04:01:48.208Z,2.70
2018-07-19T04:02:48.110Z,2.50
2018-07-19T04:03:48.035Z,2.40
2018-07-19T04:04:47.962Z,2.30
2018-07-19T04:05:47.888Z,2.50
2018-07-19T04:06:47.801Z,2.30
2018-07-19T04:07:47.726Z,2.40
2018-07-19T04:08:47.636Z,2.40
2018-07-19T04:09:47.561Z,2.50
2018-07-19T04:10:47.487Z,2.40
2018-07-19T04:11:47.398Z,2.40
2018-07-19T04:12:47.329Z,2.90
2018-07-19T04:13:47.250Z,2.30
2018-07-19T04:14:47.164Z,2.30
2018-07-19T04:15:47.089Z,2.70
2018-07-19T04:16:47.002Z,2.30
2018-07-19T04:17:46.926Z,2.20
2018-07-19T04:18:46.851Z,2.10
2018-07-19T04:19:46.764Z,2.40
2018-07-19T04:20:46.687Z,2.10
2018-07-19T04:21:46.612Z,2.20
2018-07-19T04:22:46.524Z,2.60
2018-07-19T04:23:46.450Z,2.40
2018-07-19T04:24:46.376Z,2.30
2018-07-19T04:25:46.293Z,2.60
2018-07-19T04:26:46.217Z,3.00
2018-07-19T04:27:46.141Z,2.40
2018-07-19T04:28:46.051Z,2.50
2018-07-19T04:29:45.974Z,2.20
2018-07-19T04:30:45.903Z,2.40
2018-07-19T04:31:45.812Z,2.40
2018-07-19T04:32:45.738Z,2.60
2018-07-19T04:33:45.664Z,2.40
2018-07-19T04:34:45.574Z,2.40
2018-07-19T04:35:45.500Z,2.30
2018-07-19T04:36:45.428Z,2.40
2018-07-19T04:37:45.341Z,2.50
2018-07-19T04:38:45.265Z,2.60
2018-07-19T04:39:45.191Z,2.50
2018-07-19T04:40:45.101Z,2.60
2018-07-19T04:41:45.026Z,2.30
2018-07-19T04:42:44.951Z,2.50
2018-07-19T04:43:44.865Z,2.50
2018-07-19T04:44:44.794Z,2.20
2018-07-19T04:45:44.716Z,2.50
2018-07-19T04:46:44.628Z,2.20
2018-07-19T04:47:44.553Z,2.20
2018-07-19T04:48:44.479Z,2.40
2018-07-19T04:49:44.403Z,2.30
2018-07-19T04:50:44.317Z,2.40
2018-07-19T04:51:44.243Z,2.20
2018-07-19T04:52:44.165Z,2.40
2018-07-19T04:53:44.076Z,2.10
2018-07-19T04:54:44.068Z,2.20
2018-07-19T04:55:43.931Z,2.20
2018-07-19T04:56:43.842Z,2.10
2018-07-19T04:57:43.768Z,2.10
2018-07-19T04:58:43.698Z,2.00
2018-07-19T04:59:43.606Z,2.20
2018-07-19T05:00:43.530Z,1.90
2018-07-19T05:01:43.492Z,2.20
2018-07-19T05:02:43.380Z,2.20
2018-07-19T05:03:43.295Z,2.00
2018-07-19T05:04:43.218Z,2.00
2018-07-19T05:05:43.142Z,2.00
2018-07-19T05:06:43.066Z,2.30
2018-07-19T05:07:42.980Z,2.10
2018-07-19T05:08:42.907Z,1.90
2018-07-19T05:09:42.830Z,2.00
2018-07-19T05:10:42.770Z,2.00
2018-07-19T05:11:42.669Z,2.20
2018-07-19T05:12:42.595Z,1.90
2018-07-19T05:13:42.521Z,2.20
2018-07-19T05:14:42.443Z,2.10
2018-07-19T05:15:42.355Z,2.00
2018-07-19T05:16:42.282Z,2.20
2018-07-19T05:17:42.207Z,2.10
2018-07-19T05:18:42.132Z,2.40
2018-07-19T05:19:42.045Z,2.40
2018-07-19T05:20:41.970Z,2.20
2018-07-19T05:21:41.897Z,2.60
2018-07-19T05:22:41.820Z,2.50
2018-07-19T05:23:41.737Z,2.50
2018-07-19T05:24:41.655Z,2.70
2018-07-19T05:25:41.594Z,2.70
2018-07-19T05:26:41.509Z,2.40
2018-07-19T05:27:41.419Z,2.50
2018-07-19T05:28:41.361Z,2.50
2018-07-19T05:29:41.273Z,2.50
2018-07-19T05:30:41.196Z,2.40
2018-07-19T05:31:41.110Z,2.50
2018-07-19T05:32:41.031Z,2.50
2018-07-19T05:33:40.956Z,2.40
2018-07-19T05:34:40.953Z,2.40
2018-07-19T05:35:40.795Z,2.80
2018-07-19T05:36:40.722Z,2.90
2018-07-19T05:37:40.647Z,3.00
2018-07-19T05:38:40.576Z,2.70
2018-07-19T05:39:40.486Z,2.80
2018-07-19T05:40:40.408Z,2.90
2018-07-19T05:41:40.333Z,2.90
2018-07-19T05:42:40.261Z,2.60
2018-07-19T05:43:40.185Z,2.90
2018-07-19T05:44:40.099Z,2.70
2018-07-19T05:45:40.027Z,2.60
2018-07-19T05:46:39.949Z,2.80
2018-07-19T05:47:39.873Z,2.90
2018-07-19T05:48:39.783Z,2.80
2018-07-19T05:49:39.708Z,2.50
2018-07-19T05:50:39.647Z,2.60
2018-07-19T05:51:39.558Z,2.60
2018-07-19T05:52:39.475Z,2.80
2018-07-19T05:53:39.398Z,3.30
2018-07-19T05:54:39.323Z,2.60
2018-07-19T05:55:39.248Z,2.50
2018-07-19T05:56:39.163Z,2.80
2018-07-19T05:57:39.089Z,2.90
2018-07-19T05:58:39.012Z,2.90
2018-07-19T05:59:38.936Z,2.90
2018-07-19T06:00:38.859Z,2.90
2018-07-19T06:01:38.773Z,2.90
2018-07-19T06:02:38.698Z,3.10
2018-07-19T06:03:38.625Z,3.00
2018-07-19T06:04:38.551Z,3.20
2018-07-19T06:05:38.463Z,2.80
2018-07-19T06:06:38.387Z,2.80
2018-07-19T06:07:38.313Z,3.00
2018-07-19T06:08:38.237Z,2.70
2018-07-19T06:09:38.191Z,3.00
2018-07-19T06:10:38.077Z,2.90
2018-07-19T06:11:38.002Z,2.80
2018-07-19T06:12:37.924Z,2.90
2018-07-19T06:13:37.850Z,3.10
2018-07-19T06:14:37.762Z,2.80
2018-07-19T06:15:37.686Z,3.00
2018-07-19T06:16:37.614Z,3.10
2018-07-19T06:17:37.539Z,3.10
2018-07-19T06:18:37.507Z,3.40
2018-07-19T06:19:37.377Z,3.30
2018-07-19T06:20:37.300Z,2.90
2018-07-19T06:21:37.226Z,3.00
2018-07-19T06:22:37.150Z,3.30
2018-07-19T06:23:37.078Z,3.30
2018-07-19T06:24:36.988Z,3.20
2018-07-19T06:25:36.912Z,3.30
2018-07-19T06:26:36.838Z,3.20
2018-07-19T06:27:36.763Z,3.10
2018-07-19T06:28:36.691Z,3.30
2018-07-19T06:29:36.627Z,3.20
2018-07-19T06:30:36.528Z,3.10
2018-07-19T06:31:36.495Z,3.20
2018-07-19T06:32:36.376Z,2.70
2018-07-19T06:33:36.303Z,3.20
2018-07-19T06:34:36.217Z,3.00
2018-07-19T06:35:36.153Z,2.90
2018-07-19T06:36:36.067Z,3.20
2018-07-19T06:37:35.991Z,3.40
2018-07-19T06:38:35.916Z,3.10
2018-07-19T06:39:35.854Z,3.10
2018-07-19T06:40:35.769Z,3.00
2018-07-19T06:41:35.684Z,3.20
2018-07-19T06:42:35.602Z,3.00
2018-07-19T06:43:35.528Z,3.00
2018-07-19T06:44:35.454Z,2.90
2018-07-19T06:45:35.384Z,3.00
2018-07-19T06:46:35.293Z,3.10
2018-07-19T06:47:35.217Z,3.10
2018-07-19T06:48:35.140Z,3.00
2018-07-19T06:49:35.140Z,3.00
2018-07-19T06:50:34.990Z,3.10
2018-07-19T06:51:34.915Z,3.00
2018-07-19T06:52:34.856Z,3.10
2018-07-19T06:53:34.771Z,2.80
2018-07-19T06:54:34.684Z,3.20
2018-07-19T06:55:34.606Z,3.30
2018-07-19T06:56:34.534Z,3.30
2018-07-19T06:57:34.534Z,3.10
2018-07-19T06:58:34.386Z,3.00
2018-07-19T06:59:34.306Z,3.00
2018-07-19T07:00:34.230Z,3.20
2018-07-19T07:01:34.154Z,3.00
2018-07-19T07:02:34.066Z,3.70
2018-07-19T07:03:34.011Z,3.90
2018-07-19T07:04:33.919Z,3.60
2018-07-19T07:05:33.857Z,3.50
2018-07-19T07:06:33.770Z,3.60
2018-07-19T07:07:33.694Z,3.70
2018-07-19T07:08:33.617Z,3.90
2018-07-19T07:09:33.555Z,3.40
2018-07-19T07:10:33.467Z,3.70
2018-07-19T07:11:33.387Z,3.40
2018-07-19T07:12:33.306Z,3.20
2018-07-19T07:13:33.231Z,3.70
2018-07-19T07:14:33.155Z,3.20
2018-07-19T07:15:33.081Z,3.50
2018-07-19T07:16:33.008Z,3.60
2018-07-19T07:17:32.932Z,3.40
2018-07-19T07:18:32.859Z,3.50
2018-07-19T07:19:32.783Z,3.50
2018-07-19T07:20:32.706Z,3.30
2018-07-19T07:21:32.631Z,3.30
2018-07-19T07:22:32.557Z,3.50
2018-07-19T07:23:32.481Z,3.30
2018-07-19T07:24:32.409Z,3.60
2018-07-19T07:25:32.334Z,3.80
2018-07-19T07:26:32.259Z,4.10
2018-07-19T07:27:32.184Z,3.90
2018-07-19T07:28:32.109Z,3.70
2018-07-19T07:29:32.034Z,3.90
2018-07-19T07:30:31.959Z,4.10
2018-07-19T07:31:31.892Z,4.10
2018-07-19T07:32:31.807Z,4.20
2018-07-19T07:33:31.733Z,4.10
2018-07-19T07:34:31.658Z,4.20
2018-07-19T07:35:31.582Z,3.70
2018-07-19T07:36:31.510Z,4.30
2018-07-19T07:37:31.434Z,4.40
2018-07-19T07:38:31.360Z,4.40
2018-07-19T07:39:31.285Z,4.50
2018-07-19T07:40:31.211Z,4.50
2018-07-19T07:41:31.133Z,4.20
2018-07-19T07:42:31.059Z,3.90
2018-07-19T07:43:30.983Z,4.00
2018-07-19T07:44:30.910Z,4.00
2018-07-19T07:45:30.836Z,3.90
2018-07-19T07:46:30.774Z,4.40
2018-07-19T07:47:30.686Z,3.90
2018-07-19T07:48:30.611Z,3.70
2018-07-19T07:49:30.534Z,3.80
2018-07-19T07:50:30.470Z,3.60
2018-07-19T07:51:30.384Z,3.60
2018-07-19T07:52:30.323Z,3.50
2018-07-19T07:53:30.249Z,3.60
2018-07-19T07:54:30.174Z,3.50
2018-07-19T07:55:30.112Z,3.70
2018-07-19T07:56:30.022Z,3.70
2018-07-19T07:57:29.946Z,3.90
2018-07-19T07:58:29.872Z,3.50
2018-07-19T07:59:29.810Z,3.50
2018-07-19T08:00:29.778Z,4.00
2018-07-19T08:01:29.660Z,3.70
2018-07-19T08:02:29.586Z,3.70
2018-07-19T08:03:29.512Z,4.10
2018-07-19T08:04:29.439Z,4.00
2018-07-19T08:05:29.363Z,3.90
2018-07-19T08:06:29.288Z,4.20
2018-07-19T08:07:29.225Z,3.90
2018-07-19T08:08:29.148Z,4.10
2018-07-19T08:09:29.073Z,3.50
2018-07-19T08:10:29.000Z,3.60
2018-07-19T08:11:28.923Z,3.70
2018-07-19T08:12:28.865Z,3.90
2018-07-19T08:13:28.794Z,3.70
2018-07-19T08:14:28.715Z,3.90
2018-07-19T08:15:28.639Z,4.00
2018-07-19T08:16:28.564Z,3.60
2018-07-19T08:17:28.490Z,4.00
2018-07-19T08:18:28.414Z,4.40
2018-07-19T08:19:28.352Z,3.80
2018-07-19T08:20:28.274Z,4.00
2018-07-19T08:21:28.201Z,3.80
2018-07-19T08:22:28.125Z,4.00
2018-07-19T08:23:28.053Z,3.60
2018-07-19T08:24:27.991Z,4.30
2018-07-19T08:25:27.915Z,3.70
2018-07-19T08:26:27.845Z,3.90
2018-07-19T08:27:27.765Z,3.80
2018-07-19T08:28:27.689Z,3.70
2018-07-19T08:29:27.616Z,3.90
2018-07-19T08:30:27.540Z,3.60
2018-07-19T08:31:27.466Z,3.50
2018-07-19T08:32:27.411Z,3.70
2018-07-19T08:33:27.326Z,3.80
2018-07-19T08:34:27.251Z,4.00
2018-07-19T08:35:27.179Z,4.40
2018-07-19T08:36:27.105Z,4.20
2018-07-19T08:37:27.041Z,4.00
2018-07-19T08:38:26.973Z,3.70
2018-07-19T08:39:26.893Z,4.10
2018-07-19T08:40:26.841Z,4.00
2018-07-19T08:41:26.752Z,3.90
2018-07-19T08:42:26.678Z,4.10
2018-07-19T08:43:26.602Z,3.90
2018-07-19T08:44:26.530Z,4.20
2018-07-19T08:45:26.454Z,4.40
2018-07-19T08:46:26.381Z,4.00
2018-07-19T08:47:26.319Z,4.00
2018-07-19T08:48:26.242Z,3.70
2018-07-19T08:49:26.171Z,3.80
2018-07-19T08:50:26.093Z,4.30
2018-07-19T08:51:26.019Z,4.00
2018-07-19T08:52:25.953Z,3.90
2018-07-19T08:53:25.879Z,4.10
2018-07-19T08:54:25.804Z,4.00
2018-07-19T08:55:25.743Z,3.90
2018-07-19T08:56:25.683Z,4.30
2018-07-19T08:57:25.581Z,4.10
2018-07-19T08:58:25.506Z,3.90
2018-07-19T08:59:25.445Z,4.20
2018-07-19T09:00:25.372Z,3.60
2018-07-19T09:01:25.292Z,3.80
2018-07-19T09:02:25.224Z,3.90
2018-07-19T09:03:25.145Z,4.10
2018-07-19T09:04:25.075Z,3.80
2018-07-19T09:05:24.994Z,4.20
2018-07-19T09:06:24.920Z,4.00
2018-07-19T09:07:24.843Z,4.20
2018-07-19T09:08:24.783Z,4.30
2018-07-19T09:09:24.707Z,4.10
2018-07-19T09:10:24.645Z,4.10
2018-07-19T09:11:24.557Z,4.20
2018-07-19T09:12:24.481Z,4.20
2018-07-19T09:13:24.405Z,4.40
2018-07-19T09:14:24.332Z,4.40
2018-07-19T09:15:24.255Z,4.60
2018-07-19T09:16:24.185Z,4.60
2018-07-19T09:17:24.108Z,4.30
2018-07-19T09:18:24.033Z,4.40
2018-07-19T09:19:23.967Z,4.40
2018-07-19T09:20:23.883Z,4.40
2018-07-19T09:21:23.811Z,4.40
2018-07-19T09:22:23.737Z,4.40
2018-07-19T09:23:23.658Z,4.60
2018-07-19T09:24:23.582Z,4.30
2018-07-19T09:25:23.507Z,4.40
2018-07-19T09:26:23.432Z,4.30
2018-07-19T09:27:23.358Z,4.20
2018-07-19T09:28:23.285Z,4.20
2018-07-19T09:29:23.210Z,4.40
2018-07-19T09:30:23.135Z,3.90
2018-07-19T09:31:23.063Z,4.40
2018-07-19T09:32:22.984Z,4.50
2018-07-19T09:33:22.909Z,4.00
2018-07-19T09:34:22.847Z,4.20
2018-07-19T09:35:22.759Z,4.30
2018-07-19T09:36:22.696Z,4.20
2018-07-19T09:37:22.621Z,4.10
2018-07-19T09:38:22.579Z,4.50
2018-07-19T09:39:22.472Z,4.50
2018-07-19T09:40:22.399Z,4.10
2018-07-19T09:41:22.323Z,4.20
2018-07-19T09:42:22.249Z,4.50
2018-07-19T09:43:22.185Z,4.40
2018-07-19T09:44:22.097Z,4.20
2018-07-19T09:45:22.022Z,4.30
2018-07-19T09:46:21.947Z,4.30
2018-07-19T09:47:21.873Z,4.40
2018-07-19T09:48:21.800Z,4.30
2018-07-19T09:49:21.724Z,4.50
2018-07-19T09:50:21.650Z,4.10
2018-07-19T09:51:21.574Z,4.10
2018-07-19T09:52:21.497Z,4.00
2018-07-19T09:53:21.422Z,4.10
2018-07-19T09:54:21.347Z,4.20
2018-07-19T09:55:21.273Z,4.10
2018-07-19T09:56:21.200Z,4.30
2018-07-19T09:57:21.125Z,4.10
2018-07-19T09:58:21.050Z,4.40
2018-07-19T09:59:21.010Z,4.40
2018-07-19T10:00:20.899Z,4.20
2018-07-19T10:01:20.836Z,4.00
2018-07-19T10:02:20.748Z,4.20
2018-07-19T10:03:20.673Z,4.20
2018-07-19T10:04:20.601Z,3.90
2018-07-19T10:05:20.527Z,4.10
2018-07-19T10:06:20.452Z,4.20
2018-07-19T10:07:20.376Z,3.90
2018-07-19T10:08:20.302Z,4.30
2018-07-19T10:09:20.227Z,4.10
2018-07-19T10:10:20.178Z,4.20
2018-07-19T10:11:20.088Z,4.40
2018-07-19T10:12:20.016Z,4.30
2018-07-19T10:13:19.937Z,4.20
2018-07-19T10:14:19.861Z,4.10
2018-07-19T10:15:19.786Z,3.80
2018-07-19T10:16:19.730Z,4.30
2018-07-19T10:17:19.656Z,4.30
2018-07-19T10:18:19.564Z,4.40
2018-07-19T10:19:19.489Z,4.00
2018-07-19T10:20:19.412Z,4.10
2018-07-19T10:21:19.351Z,4.20
2018-07-19T10:22:19.263Z,3.70
2018-07-19T10:23:19.187Z,4.10
2018-07-19T10:24:19.116Z,3.80
2018-07-19T10:25:19.051Z,4.00
2018-07-19T10:26:18.978Z,4.30
2018-07-19T10:27:18.901Z,4.00
2018-07-19T10:28:18.830Z,4.00
2018-07-19T10:29:18.753Z,3.90
2018-07-19T10:30:18.679Z,3.80
2018-07-19T10:31:18.603Z,4.10
2018-07-19T10:32:18.558Z,4.10
2018-07-19T10:33:18.452Z,4.00
2018-07-19T10:34:18.400Z,3.90
2018-07-19T10:35:18.313Z,4.20
2018-07-19T10:36:18.241Z,4.00
2018-07-19T10:37:18.167Z,3.90
2018-07-19T10:38:18.145Z,4.00
2018-07-19T10:39:18.016Z,4.00
2018-07-19T10:40:17.961Z,4.20
2018-07-19T10:41:17.867Z,3.80
2018-07-19T10:42:17.791Z,3.70
2018-07-19T10:43:17.716Z,4.00
2018-07-19T10:44:17.661Z,3.90
2018-07-19T10:45:17.566Z,4.00
2018-07-19T10:46:17.491Z,4.00
2018-07-19T10:47:17.416Z,4.00
2018-07-19T10:48:17.355Z,3.90
2018-07-19T10:49:17.281Z,3.90
2018-07-19T10:50:17.205Z,4.00
2018-07-19T10:51:17.136Z,3.70
2018-07-19T10:52:17.055Z,3.80
2018-07-19T10:53:16.980Z,3.90
2018-07-19T10:54:16.905Z,3.60
2018-07-19T10:55:16.835Z,4.00
2018-07-19T10:56:16.755Z,3.80
2018-07-19T10:57:16.679Z,3.70
2018-07-19T10:58:16.607Z,3.70
2018-07-19T10:59:16.530Z,3.80
2018-07-19T11:00:16.459Z,4.00
2018-07-19T11:01:16.383Z,3.90
2018-07-19T11:02:16.307Z,3.80
2018-07-19T11:03:16.232Z,3.90
2018-07-19T11:04:16.157Z,3.80
2018-07-19T11:05:16.092Z,3.40
2018-07-19T11:06:16.017Z,3.40
2018-07-19T11:07:15.942Z,3.50
2018-07-19T11:08:15.869Z,3.40
2018-07-19T11:09:15.795Z,3.20
2018-07-19T11:10:15.719Z,3.30
2018-07-19T11:11:15.645Z,3.50
2018-07-19T11:12:15.569Z,3.70
2018-07-19T11:13:15.494Z,3.60
2018-07-19T11:14:15.434Z,3.40
2018-07-19T11:15:15.347Z,3.40
2018-07-19T11:16:15.270Z,3.60
2018-07-19T11:17:15.206Z,3.60
2018-07-19T11:18:15.132Z,3.10
2018-07-19T11:19:15.068Z,3.60
2018-07-19T11:20:14.984Z,3.00
2018-07-19T11:21:14.909Z,3.70
2018-07-19T11:22:14.837Z,3.30
2018-07-19T11:23:14.771Z,3.30
2018-07-19T11:24:14.694Z,3.50
2018-07-19T11:25:14.619Z,3.50
2018-07-19T11:26:14.545Z,3.70
2018-07-19T11:27:14.482Z,3.50
2018-07-19T11:28:14.395Z,3.50
2018-07-19T11:29:14.332Z,3.20
2018-07-19T11:30:14.261Z,3.60
2018-07-19T11:31:14.183Z,3.20
2018-07-19T11:32:14.115Z,3.40
2018-07-19T11:33:14.039Z,3.90
2018-07-19T11:34:13.961Z,3.50
2018-07-19T11:35:13.903Z,3.70
2018-07-19T11:36:13.821Z,3.70
2018-07-19T11:37:13.745Z,3.60
2018-07-19T11:38:13.675Z,3.60
2018-07-19T11:39:13.595Z,3.70
2018-07-19T11:40:13.535Z,3.60
2018-07-19T11:41:13.462Z,3.50
2018-07-19T11:42:13.387Z,3.30
2018-07-19T11:43:13.313Z,3.60
2018-07-19T11:44:13.237Z,3.40
2018-07-19T11:45:13.173Z,3.60
2018-07-19T11:46:13.098Z,3.50
2018-07-19T11:47:13.023Z,3.60
2018-07-19T11:48:12.946Z,3.30
2018-07-19T11:49:12.871Z,3.40
2018-07-19T11:50:12.797Z,3.40
2018-07-19T11:51:12.735Z,3.20
2018-07-19T11:52:12.663Z,3.70
2018-07-19T11:53:12.587Z,3.50
2018-07-19T11:54:12.512Z,3.50
2018-07-19T11:55:12.438Z,3.30
2018-07-19T11:56:12.372Z,3.50
2018-07-19T11:57:12.298Z,3.20
2018-07-19T11:58:12.222Z,3.40
2018-07-19T11:59:12.147Z,3.20
2018-07-19T12:00:12.076Z,3.10
2018-07-19T12:01:12.013Z,3.40
2018-07-19T12:02:11.938Z,3.30
2018-07-19T12:03:11.863Z,3.10
2018-07-19T12:04:11.786Z,3.30
2018-07-19T12:05:11.724Z,3.20
2018-07-19T12:06:11.648Z,3.10
2018-07-19T12:07:11.573Z,3.40
2018-07-19T12:08:11.503Z,3.40
2018-07-19T12:09:11.449Z,3.40
2018-07-19T12:10:11.365Z,3.30
2018-07-19T12:11:11.291Z,3.40
2018-07-19T12:12:11.224Z,3.40
2018-07-19T12:13:11.149Z,3.30
2018-07-19T12:14:11.087Z,3.40
2018-07-19T12:15:11.000Z,3.50
2018-07-19T12:16:10.937Z,3.50
2018-07-19T12:17:10.864Z,3.40
2018-07-19T12:18:10.803Z,3.20
2018-07-19T12:19:10.714Z,3.40
2018-07-19T12:20:10.652Z,3.60
2018-07-19T12:21:10.577Z,3.20
2018-07-19T12:22:10.502Z,3.50
2018-07-19T12:23:10.428Z,3.30
2018-07-19T12:24:10.364Z,3.30
2018-07-19T12:25:10.289Z,3.40
2018-07-19T12:26:10.214Z,3.30
2018-07-19T12:27:10.151Z,3.20
2018-07-19T12:28:10.080Z,3.30
2018-07-19T12:29:10.015Z,3.10
2018-07-19T12:30:09.930Z,3.40
2018-07-19T12:31:09.891Z,3.60
2018-07-19T12:32:09.799Z,3.50
2018-07-19T12:33:09.716Z,3.40
2018-07-19T12:34:09.653Z,3.20
2018-07-19T12:35:09.579Z,3.20
2018-07-19T12:36:09.513Z,3.20
2018-07-19T12:37:09.428Z,3.20
2018-07-19T12:38:09.364Z,2.90
2018-07-19T12:39:09.292Z,3.10
2018-07-19T12:40:09.228Z,3.10
2018-07-19T12:41:09.155Z,2.90
2018-07-19T12:42:09.078Z,2.80
2018-07-19T12:43:09.017Z,2.90
2018-07-19T12:44:08.940Z,2.80
2018-07-19T12:45:08.877Z,2.60
2018-07-19T12:46:08.814Z,2.70
2018-07-19T12:47:08.740Z,2.90
2018-07-19T12:48:08.678Z,3.00
2018-07-19T12:49:08.602Z,2.90
2018-07-19T12:50:08.541Z,2.90
2018-07-19T12:51:08.467Z,2.50
2018-07-19T12:52:08.469Z,2.60
2018-07-19T12:53:08.344Z,2.80
2018-07-19T12:54:08.282Z,2.60
2018-07-19T12:55:08.218Z,2.70
2018-07-19T12:56:08.142Z,2.70
2018-07-19T12:57:08.079Z,2.80
2018-07-19T12:58:08.005Z,2.80
2018-07-19T12:59:07.942Z,2.70
2018-07-19T13:00:07.885Z,2.60
2018-07-19T13:01:07.819Z,2.80
2018-07-19T13:02:07.744Z,2.80
2018-07-19T13:03:07.683Z,2.90
2018-07-19T13:04:07.620Z,2.80
2018-07-19T13:05:07.545Z,3.10
2018-07-19T13:06:07.483Z,2.60
2018-07-19T13:07:07.408Z,2.80
2018-07-19T13:08:07.345Z,2.70
2018-07-19T13:09:07.283Z,2.60
2018-07-19T13:10:07.205Z,2.80
2018-07-19T13:11:07.143Z,3.00
2018-07-19T13:12:07.083Z,2.60
2018-07-19T13:13:07.007Z,2.60
2018-07-19T13:14:06.946Z,2.80
2018-07-19T13:15:06.923Z,2.80
2018-07-19T13:16:06.806Z,3.10
2018-07-19T13:17:06.730Z,3.10